Terminal Aerodrome Forecast
Issued by NWS

Home | Current Version | Previous Version | Text Only | Print | Product List | Glossary On
Versions: 1 2 3 4 5 6 7 8 9 10 11 12 13 14 15 16 17 18 19 20 21 22 23 24 25 26 27 28
000
FTUS44 KHGX 241003 AAA
TAFUTS
TAF AMD
KUTS 241003Z 2410/2506 16006KT P6SM SCT015
     FM241500 18006KT P6SM SCT025
     FM242100 15005KT P6SM VCTS SCT045CB
     FM250300 16003KT P6SM FEW050 SCT250=

USA.gov is the U.S. government's official web portal to all federal, state and local government web resources and services.